East Orange, Vermont
Current Conditions -  °F | °C
As of 8:51 PM on Friday 24 Oct 2014 (Local Time) from KMPV Reporting Station
Overcast Overcast  
Wind Chill:   Ceiling: 6000
Heat Index:   Visibility: 10mi
Dew Point:   Wind: 3mph
Humidity: 86%   Direction: 330°NNW
Pressure: 29.85"   Gusts: NA
Location:  44.1344°N, 72.2538°W
Report Text: KMPV 250051Z AUTO 33003KT 10SM SCT041 OVC060 06/04 A2985 RMK AO2 SLP118 T00610039 $
Loading
Personal Weather Stations






























Interactive Weather Map
Tropical Storm Tracking
New forecast layout! Learn more

10-Day Weather Forecast

Advertisements
Track Severe Weather on mobile